createdAt,value
2022-08-25T00:00:17.572Z,19.44
2022-08-25T00:02:55.016Z,19.30
2022-08-25T00:05:29.166Z,19.29
2022-08-25T00:08:01.238Z,19.36
2022-08-25T00:10:31.888Z,19.22
2022-08-25T00:13:00.416Z,19.10
2022-08-25T00:15:29.759Z,19.17
2022-08-25T00:17:58.820Z,19.22
2022-08-25T00:20:27.650Z,19.15
2022-08-25T00:22:57.258Z,19.03
2022-08-25T00:25:25.862Z,19.16
2022-08-25T00:27:55.894Z,19.20
2022-08-25T00:30:24.746Z,19.30
2022-08-25T00:32:55.347Z,19.31
2022-08-25T00:35:27.555Z,19.28
2022-08-25T00:37:56.432Z,19.29
2022-08-25T00:40:28.007Z,19.24
2022-08-25T00:42:58.293Z,19.09
2022-08-25T00:45:27.149Z,19.27
2022-08-25T00:47:59.914Z,19.08
2022-08-25T00:50:30.066Z,19.20
2022-08-25T00:53:03.466Z,18.89
2022-08-25T00:55:37.396Z,18.88
2022-08-25T00:58:14.349Z,19.06
2022-08-25T01:00:46.120Z,18.94
2022-08-25T01:03:14.967Z,18.99
2022-08-25T01:05:45.500Z,19.07
2022-08-25T01:08:16.361Z,19.09
2022-08-25T01:10:46.628Z,19.23
2022-08-25T01:13:21.140Z,19.13
2022-08-25T01:15:54.695Z,19.04
2022-08-25T01:18:24.252Z,19.13
2022-08-25T01:20:54.608Z,19.07
2022-08-25T01:23:23.589Z,18.97
2022-08-25T01:25:59.821Z,18.86
2022-08-25T01:28:28.913Z,18.91
2022-08-25T01:30:57.927Z,18.82
2022-08-25T01:33:27.161Z,18.95
2022-08-25T01:35:57.241Z,19.07
2022-08-25T01:38:25.869Z,18.94
2022-08-25T01:40:54.737Z,18.90
2022-08-25T01:43:31.899Z,18.91
2022-08-25T01:46:00.683Z,18.89
2022-08-25T01:48:29.250Z,18.56
2022-08-25T01:50:59.386Z,18.83
2022-08-25T01:53:32.226Z,18.97
2022-08-25T01:56:09.703Z,18.97
2022-08-25T01:58:40.939Z,19.04
2022-08-25T02:01:11.904Z,18.91
2022-08-25T02:03:42.464Z,18.95
2022-08-25T02:06:12.371Z,18.79
2022-08-25T02:08:42.271Z,18.25
2022-08-25T02:11:13.801Z,18.07
2022-08-25T02:13:43.322Z,17.91
2022-08-25T02:16:17.726Z,17.94
2022-08-25T02:18:46.553Z,17.83
2022-08-25T02:21:16.890Z,17.85
2022-08-25T02:23:46.090Z,17.97
2022-08-25T02:26:16.951Z,17.91
2022-08-25T02:28:47.483Z,17.91
2022-08-25T02:31:17.711Z,17.60
2022-08-25T02:33:46.507Z,17.25
2022-08-25T02:36:16.659Z,17.33
2022-08-25T02:38:45.654Z,17.19
2022-08-25T02:41:16.095Z,17.31
2022-08-25T02:43:47.034Z,17.37
2022-08-25T02:46:16.606Z,17.42
2022-08-25T02:48:45.480Z,17.64
2022-08-25T02:51:14.771Z,17.31
2022-08-25T02:53:46.312Z,17.04
2022-08-25T02:56:16.588Z,17.06
2022-08-25T02:58:46.118Z,17.19
2022-08-25T03:01:15.865Z,17.29
2022-08-25T03:03:46.783Z,17.47
2022-08-25T03:06:19.141Z,17.38
2022-08-25T03:08:49.700Z,17.47
2022-08-25T03:11:19.164Z,17.63
2022-08-25T03:13:50.400Z,17.58
2022-08-25T03:16:19.767Z,17.50
2022-08-25T03:18:49.739Z,17.59
2022-08-25T03:21:19.785Z,17.74
2022-08-25T03:23:50.100Z,17.65
2022-08-25T03:26:36.685Z,17.77
2022-08-25T03:29:06.264Z,17.59
2022-08-25T03:31:36.366Z,17.44
2022-08-25T03:34:05.627Z,17.33
2022-08-25T03:36:34.480Z,17.46
2022-08-25T03:39:05.148Z,17.59
2022-08-25T03:41:33.903Z,17.71
2022-08-25T03:44:04.920Z,17.79
2022-08-25T03:46:36.062Z,17.91
2022-08-25T03:49:06.404Z,17.96
2022-08-25T03:51:37.523Z,17.45
2022-08-25T03:54:08.706Z,17.33
2022-08-25T03:56:38.201Z,17.26
2022-08-25T03:59:09.420Z,17.21
2022-08-25T04:01:38.835Z,17.18
2022-08-25T04:04:08.743Z,17.17
2022-08-25T04:06:37.865Z,17.23
2022-08-25T04:09:08.783Z,17.25
2022-08-25T04:11:37.939Z,17.27
2022-08-25T04:14:06.757Z,17.21
2022-08-25T04:16:37.104Z,17.38
2022-08-25T04:19:06.741Z,17.47
2022-08-25T04:21:35.509Z,17.49
2022-08-25T04:24:04.517Z,17.24
2022-08-25T04:26:38.161Z,17.38
2022-08-25T04:29:10.078Z,17.46
2022-08-25T04:31:41.667Z,17.46
2022-08-25T04:34:13.477Z,17.57
2022-08-25T04:36:59.983Z,17.63
2022-08-25T04:39:28.799Z,17.73
2022-08-25T04:42:00.951Z,17.76
2022-08-25T04:44:32.065Z,17.88
2022-08-25T04:47:01.297Z,18.01
2022-08-25T04:49:30.865Z,18.08
2022-08-25T04:51:59.562Z,18.16
2022-08-25T04:54:28.459Z,18.02
2022-08-25T04:56:59.010Z,18.21
2022-08-25T04:59:30.049Z,18.16
2022-08-25T05:02:02.787Z,18.43
2022-08-25T05:04:32.979Z,18.42
2022-08-25T05:07:01.840Z,18.52
2022-08-25T05:09:32.628Z,18.47
2022-08-25T05:12:03.861Z,18.54
2022-08-25T05:14:33.060Z,18.62
2022-08-25T05:17:03.058Z,18.76
2022-08-25T05:19:31.758Z,18.78
2022-08-25T05:22:00.510Z,18.88
2022-08-25T05:24:29.821Z,18.82
2022-08-25T05:26:59.145Z,19.05
2022-08-25T05:29:29.463Z,18.91
2022-08-25T05:31:58.295Z,18.89
2022-08-25T05:34:27.159Z,18.94
2022-08-25T05:36:57.601Z,19.04
2022-08-25T05:39:26.820Z,19.12
2022-08-25T05:41:55.858Z,19.11
2022-08-25T05:44:24.544Z,18.91
2022-08-25T05:46:54.799Z,18.88
2022-08-25T05:49:23.584Z,18.77
2022-08-25T05:51:52.388Z,18.80
2022-08-25T05:54:21.210Z,18.83
2022-08-25T05:56:49.925Z,18.98
2022-08-25T05:59:19.010Z,18.81
2022-08-25T06:02:04.564Z,18.85
2022-08-25T06:04:36.628Z,18.81
2022-08-25T06:07:08.300Z,18.90
2022-08-25T06:09:39.261Z,18.93
2022-08-25T06:12:09.702Z,19.06
2022-08-25T06:14:38.366Z,18.97
2022-08-25T06:17:07.385Z,18.99
2022-08-25T06:19:39.758Z,19.11
2022-08-25T06:22:10.281Z,19.08
2022-08-25T06:24:39.139Z,19.19
2022-08-25T06:27:07.858Z,19.29
2022-08-25T06:29:36.533Z,19.36
2022-08-25T06:32:07.217Z,19.36
2022-08-25T06:34:37.750Z,19.47
2022-08-25T06:37:06.642Z,19.45
2022-08-25T06:39:35.330Z,19.46
2022-08-25T06:42:04.039Z,19.66
2022-08-25T06:44:32.698Z,19.66
2022-08-25T06:47:02.506Z,19.75
2022-08-25T06:49:35.531Z,19.72
2022-08-25T06:52:07.141Z,19.75
2022-08-25T06:54:35.887Z,19.79
2022-08-25T06:57:05.447Z,19.43
2022-08-25T06:59:34.315Z,19.66
2022-08-25T07:02:04.833Z,19.63
2022-08-25T07:04:34.077Z,19.72
2022-08-25T07:07:02.962Z,19.80
2022-08-25T07:09:36.309Z,19.83
2022-08-25T07:12:08.971Z,19.72
2022-08-25T07:14:38.083Z,19.64
2022-08-25T07:17:12.035Z,19.76
2022-08-25T07:19:41.680Z,19.84
2022-08-25T07:22:10.383Z,19.72
2022-08-25T07:24:40.561Z,19.78
2022-08-25T07:27:09.290Z,19.88
2022-08-25T07:29:42.632Z,19.98
2022-08-25T07:32:11.645Z,19.95
2022-08-25T07:34:57.273Z,20.16
2022-08-25T07:37:48.173Z,20.10
2022-08-25T07:40:19.049Z,20.06
2022-08-25T07:42:47.903Z,20.21
2022-08-25T07:45:21.006Z,20.22
2022-08-25T07:47:52.367Z,20.23
2022-08-25T07:50:21.310Z,20.23
2022-08-25T07:52:55.333Z,20.14
2022-08-25T07:55:27.155Z,20.24
2022-08-25T07:57:57.356Z,20.38
2022-08-25T08:00:28.481Z,20.51
2022-08-25T08:02:57.903Z,20.38
2022-08-25T08:05:27.191Z,19.94
2022-08-25T08:07:56.702Z,20.15
2022-08-25T08:11:03.222Z,19.99
2022-08-25T08:13:18.705Z,20.06
2022-08-25T08:15:48.888Z,20.05
2022-08-25T08:18:18.441Z,20.23
2022-08-25T08:20:48.234Z,20.31
2022-08-25T08:23:18.096Z,20.33
2022-08-25T08:25:48.406Z,20.32
2022-08-25T08:28:17.162Z,20.48
2022-08-25T08:30:53.757Z,20.49
2022-08-25T08:33:25.334Z,20.44
2022-08-25T08:36:04.870Z,20.53
2022-08-25T08:38:35.202Z,20.52
2022-08-25T08:41:54.259Z,20.42
2022-08-25T08:44:30.080Z,20.47
2022-08-25T08:47:08.898Z,20.62
2022-08-25T08:49:46.710Z,20.30
2022-08-25T08:52:20.457Z,20.51
2022-08-25T08:54:57.841Z,20.61
2022-08-25T08:57:30.574Z,20.58
2022-08-25T09:00:02.715Z,20.67
2022-08-25T09:02:39.457Z,20.76
2022-08-25T09:05:21.030Z,20.92
2022-08-25T09:07:54.964Z,21.02
2022-08-25T09:10:28.206Z,20.95
2022-08-25T09:13:11.846Z,20.81
2022-08-25T09:16:09.634Z,20.81
2022-08-25T09:18:58.782Z,20.80
2022-08-25T09:21:37.584Z,20.95
2022-08-25T09:24:20.423Z,21.07
2022-08-25T09:27:00.353Z,21.05
2022-08-25T09:29:48.422Z,21.08
2022-08-25T09:32:18.994Z,21.13
2022-08-25T09:34:55.984Z,21.03
2022-08-25T09:37:26.838Z,21.23
2022-08-25T09:39:57.406Z,21.51
2022-08-25T09:42:49.768Z,21.56
2022-08-25T09:45:34.606Z,21.59
2022-08-25T09:48:03.384Z,21.65
2022-08-25T09:50:34.933Z,21.64
2022-08-25T09:53:21.707Z,21.58
2022-08-25T09:56:00.161Z,21.58
2022-08-25T09:58:29.602Z,21.75
2022-08-25T10:01:14.681Z,21.73
2022-08-25T10:03:59.102Z,21.85
2022-08-25T10:06:32.963Z,21.71
2022-08-25T10:09:04.123Z,21.69
2022-08-25T10:11:39.459Z,21.69
2022-08-25T10:14:19.123Z,21.46
2022-08-25T10:16:50.293Z,21.21
2022-08-25T10:19:27.343Z,21.45
2022-08-25T10:22:10.880Z,21.47
2022-08-25T10:24:44.111Z,21.49
2022-08-25T10:27:29.115Z,21.38
2022-08-25T10:30:19.324Z,21.40
2022-08-25T10:33:04.460Z,21.57
2022-08-25T10:35:38.365Z,21.73
2022-08-25T10:38:21.560Z,21.86
2022-08-25T10:41:00.501Z,21.90
2022-08-25T10:43:37.122Z,21.90
2022-08-25T10:46:15.097Z,22.01
2022-08-25T10:48:54.148Z,22.11
2022-08-25T10:51:46.167Z,22.00
2022-08-25T10:54:33.901Z,22.01
2022-08-25T10:57:11.855Z,21.92
2022-08-25T10:59:53.827Z,22.01
2022-08-25T11:02:57.448Z,22.42
2022-08-25T11:05:31.885Z,22.48
2022-08-25T11:08:09.687Z,22.46
2022-08-25T11:10:48.041Z,22.50
2022-08-25T11:13:26.373Z,22.29
2022-08-25T11:16:16.419Z,22.34
2022-08-25T11:18:54.983Z,22.10
2022-08-25T11:21:34.867Z,22.18
2022-08-25T11:24:16.188Z,22.26
2022-08-25T11:26:54.745Z,22.36
2022-08-25T11:29:27.352Z,22.52
2022-08-25T11:31:56.635Z,22.36
2022-08-25T11:34:25.532Z,22.31
2022-08-25T11:37:04.254Z,22.35
2022-08-25T11:40:02.184Z,22.44
2022-08-25T11:42:43.326Z,22.28
2022-08-25T11:45:26.788Z,22.22
2022-08-25T11:48:14.848Z,22.32
2022-08-25T11:51:00.326Z,22.45
2022-08-25T11:53:32.370Z,22.47
2022-08-25T11:56:04.705Z,22.46
2022-08-25T11:58:45.645Z,22.44
2022-08-25T12:01:53.433Z,22.37
2022-08-25T12:04:45.240Z,22.40
2022-08-25T12:07:29.865Z,22.51
2022-08-25T12:10:21.691Z,22.36
2022-08-25T12:13:10.574Z,22.40
2022-08-25T12:16:00.627Z,22.38
2022-08-25T12:18:46.638Z,22.49
2022-08-25T12:21:34.862Z,22.47
2022-08-25T12:24:12.263Z,22.77
2022-08-25T12:26:59.821Z,22.67
2022-08-25T12:29:34.405Z,22.66
2022-08-25T12:32:40.883Z,22.56
2022-08-25T12:35:32.427Z,22.58
2022-08-25T12:38:10.383Z,22.67
2022-08-25T12:40:56.083Z,22.74
2022-08-25T12:43:33.514Z,22.73
2022-08-25T12:46:39.669Z,22.82
2022-08-25T12:49:32.465Z,22.79
2022-08-25T12:52:06.408Z,22.80
2022-08-25T12:54:47.682Z,22.84
2022-08-25T12:57:40.364Z,23.01
2022-08-25T13:00:19.342Z,22.84
2022-08-25T13:03:12.415Z,22.79
2022-08-25T13:05:57.613Z,22.89
2022-08-25T13:09:08.399Z,22.71
2022-08-25T13:11:46.086Z,22.81
2022-08-25T13:14:22.934Z,22.76
2022-08-25T13:16:58.488Z,22.83
2022-08-25T13:19:35.309Z,22.83
2022-08-25T13:22:16.037Z,22.95
2022-08-25T13:24:50.691Z,23.10
2022-08-25T13:27:25.721Z,23.02
2022-08-25T13:29:57.264Z,23.05
2022-08-25T13:32:32.496Z,22.94
2022-08-25T13:35:17.776Z,22.90
2022-08-25T13:37:49.628Z,22.82
2022-08-25T13:40:26.371Z,22.98
2022-08-25T13:42:58.174Z,23.00
2022-08-25T13:45:31.685Z,23.07
2022-08-25T13:48:02.442Z,23.09
2022-08-25T13:50:37.241Z,22.86
2022-08-25T13:53:11.915Z,22.90
2022-08-25T13:55:52.257Z,23.04
2022-08-25T13:58:24.638Z,22.76
2022-08-25T14:01:23.497Z,22.79
2022-08-25T14:04:26.405Z,22.83
2022-08-25T14:07:19.583Z,22.79
2022-08-25T14:09:53.143Z,22.77
2022-08-25T14:12:33.836Z,23.03
2022-08-25T14:15:06.364Z,22.90
2022-08-25T14:17:39.695Z,22.85
2022-08-25T14:20:20.629Z,22.77
2022-08-25T14:22:51.728Z,22.74
2022-08-25T14:25:20.721Z,22.83
2022-08-25T14:28:13.782Z,22.74
2022-08-25T14:30:47.786Z,22.64
2022-08-25T14:33:19.755Z,22.65
2022-08-25T14:35:52.735Z,22.52
2022-08-25T14:38:23.454Z,22.46
2022-08-25T14:40:52.618Z,22.38
2022-08-25T14:43:24.067Z,22.27
2022-08-25T14:46:02.412Z,22.44
2022-08-25T14:48:34.548Z,22.42
2022-08-25T14:51:05.991Z,22.25
2022-08-25T14:53:34.866Z,22.26
2022-08-25T14:56:08.362Z,22.07
2022-08-25T14:58:51.005Z,22.02
2022-08-25T15:01:28.856Z,22.14
2022-08-25T15:04:03.589Z,22.03
2022-08-25T15:06:35.680Z,21.99
2022-08-25T15:09:11.850Z,21.92
2022-08-25T15:11:43.018Z,21.93
2022-08-25T15:14:13.482Z,21.93
2022-08-25T15:16:45.581Z,22.03
2022-08-25T15:19:16.435Z,21.94
2022-08-25T15:21:48.310Z,21.80
2022-08-25T15:24:19.101Z,21.80
2022-08-25T15:29:26.478Z,21.82
2022-08-25T15:31:55.284Z,21.81
2022-08-25T15:34:24.427Z,21.76
2022-08-25T15:36:54.832Z,21.78
2022-08-25T15:39:23.630Z,21.87
2022-08-25T15:41:53.120Z,21.81
2022-08-25T15:44:25.057Z,21.63
2022-08-25T15:46:53.993Z,21.78
2022-08-25T15:49:25.303Z,21.66
2022-08-25T15:51:56.288Z,21.63
2022-08-25T15:54:27.162Z,21.70
2022-08-25T15:56:55.970Z,21.62
2022-08-25T15:59:26.291Z,21.52
2022-08-25T16:01:56.967Z,21.42
2022-08-25T16:04:28.327Z,21.39
2022-08-25T16:06:58.823Z,21.38
2022-08-25T16:09:28.126Z,21.42
2022-08-25T16:12:03.990Z,21.42
2022-08-25T16:14:35.435Z,21.36
2022-08-25T16:17:05.747Z,21.43
2022-08-25T16:19:38.062Z,21.47
2022-08-25T16:22:11.184Z,21.43
2022-08-25T16:24:40.586Z,21.38
2022-08-25T16:27:12.191Z,21.26
2022-08-25T16:29:42.200Z,21.29
2022-08-25T16:32:13.398Z,21.13
2022-08-25T16:34:44.377Z,21.27
2022-08-25T16:37:15.038Z,21.14
2022-08-25T16:39:46.132Z,21.21
2022-08-25T16:42:16.447Z,20.98
2022-08-25T16:44:45.389Z,21.03
2022-08-25T16:47:17.707Z,20.94
2022-08-25T16:49:49.612Z,20.96
2022-08-25T16:52:37.289Z,20.96
2022-08-25T16:55:18.954Z,20.82
2022-08-25T16:57:51.918Z,20.60
2022-08-25T17:00:23.672Z,20.59
2022-08-25T17:02:56.189Z,20.60
2022-08-25T17:05:25.003Z,20.41
2022-08-25T17:08:17.929Z,20.19
2022-08-25T17:10:47.084Z,20.12
2022-08-25T17:13:15.993Z,19.98
2022-08-25T17:15:47.060Z,19.87
2022-08-25T17:18:16.371Z,19.84
2022-08-25T17:20:45.586Z,19.74
2022-08-25T17:23:16.011Z,19.69
2022-08-25T17:25:45.012Z,19.71
2022-08-25T17:28:14.018Z,19.77
2022-08-25T17:30:43.684Z,19.68
2022-08-25T17:33:12.929Z,19.66
2022-08-25T17:35:42.285Z,19.51
2022-08-25T17:38:11.650Z,19.50
2022-08-25T17:40:42.158Z,19.37
2022-08-25T17:43:10.879Z,19.26
2022-08-25T17:45:40.210Z,19.23
2022-08-25T17:48:10.610Z,19.22
2022-08-25T17:50:39.474Z,19.11
2022-08-25T17:53:09.319Z,19.16
2022-08-25T17:55:38.920Z,19.06
2022-08-25T17:58:15.319Z,18.98
2022-08-25T18:00:45.956Z,19.01
2022-08-25T18:03:15.395Z,19.12
2022-08-25T18:05:45.291Z,18.95
2022-08-25T18:08:16.332Z,18.89
2022-08-25T18:10:46.198Z,18.94
2022-08-25T18:13:16.955Z,18.87
2022-08-25T18:15:46.998Z,18.88
2022-08-25T18:18:16.443Z,18.87
2022-08-25T18:20:46.985Z,18.95
2022-08-25T18:23:15.864Z,19.04
2022-08-25T18:25:45.603Z,18.96
2022-08-25T18:28:17.928Z,19.01
2022-08-25T18:30:46.872Z,19.02
2022-08-25T18:33:19.153Z,19.01
2022-08-25T18:35:47.925Z,19.00
2022-08-25T18:38:34.570Z,18.99
2022-08-25T18:41:06.547Z,19.08
2022-08-25T18:43:36.953Z,19.06
2022-08-25T18:46:06.234Z,19.04
2022-08-25T18:48:37.012Z,19.05
2022-08-25T18:51:06.485Z,19.04
2022-08-25T18:53:49.789Z,19.16
2022-08-25T18:56:19.847Z,19.30
2022-08-25T18:58:50.082Z,19.32
2022-08-25T19:01:20.807Z,19.58
2022-08-25T19:03:50.525Z,19.61
2022-08-25T19:06:20.642Z,19.60
2022-08-25T19:08:50.046Z,19.65
2022-08-25T19:11:22.378Z,19.71
2022-08-25T19:13:52.907Z,19.58
2022-08-25T19:16:34.481Z,19.69
2022-08-25T19:19:04.786Z,19.70
2022-08-25T19:21:36.150Z,19.63
2022-08-25T19:24:05.267Z,19.65
2022-08-25T19:26:35.506Z,19.62
2022-08-25T19:29:08.934Z,19.62
2022-08-25T19:31:39.437Z,19.61
2022-08-25T19:34:09.966Z,19.62
2022-08-25T19:36:38.865Z,19.64
2022-08-25T19:39:11.507Z,19.61
2022-08-25T19:41:40.407Z,19.52
2022-08-25T19:44:12.187Z,19.68
2022-08-25T19:46:43.033Z,19.69
2022-08-25T19:49:15.241Z,19.67
2022-08-25T19:51:46.370Z,19.54
2022-08-25T19:54:16.816Z,19.65
2022-08-25T19:56:55.231Z,19.77
2022-08-25T19:59:40.549Z,19.71
2022-08-25T20:02:15.773Z,19.83
2022-08-25T20:04:47.941Z,19.88
2022-08-25T20:07:20.295Z,19.82
2022-08-25T20:09:49.560Z,19.91
2022-08-25T20:12:20.433Z,19.89
2022-08-25T20:14:52.383Z,19.94
2022-08-25T20:17:24.305Z,19.98
2022-08-25T20:19:55.733Z,19.89
2022-08-25T20:22:26.276Z,19.73
2022-08-25T20:24:56.240Z,19.78
2022-08-25T20:27:29.735Z,19.66
2022-08-25T20:30:02.721Z,19.67
2022-08-25T20:32:32.925Z,19.64
2022-08-25T20:35:02.204Z,19.76
2022-08-25T20:37:31.096Z,19.84
2022-08-25T20:40:02.623Z,19.91
2022-08-25T20:42:31.770Z,19.96
2022-08-25T20:45:02.230Z,19.95
2022-08-25T20:47:31.089Z,19.86
2022-08-25T20:50:04.552Z,19.78
2022-08-25T20:52:35.334Z,19.71
2022-08-25T20:55:04.330Z,19.74
2022-08-25T20:57:33.516Z,19.69
2022-08-25T21:00:06.091Z,19.63
2022-08-25T21:02:36.837Z,19.69
2022-08-25T21:05:06.575Z,19.76
2022-08-25T21:07:36.109Z,19.84
2022-08-25T21:10:10.440Z,19.75
2022-08-25T21:12:43.222Z,19.66
2022-08-25T21:15:18.203Z,19.73
2022-08-25T21:17:54.543Z,19.76
2022-08-25T21:20:25.110Z,19.63
2022-08-25T21:22:54.630Z,19.64
2022-08-25T21:25:23.981Z,19.62
2022-08-25T21:27:52.739Z,19.61
2022-08-25T21:30:23.124Z,19.48
2022-08-25T21:32:54.022Z,19.43
2022-08-25T21:35:22.961Z,19.36
2022-08-25T21:37:53.375Z,19.31
2022-08-25T21:40:22.383Z,19.22
2022-08-25T21:42:51.366Z,19.22
2022-08-25T21:45:21.838Z,19.22
2022-08-25T21:47:52.491Z,19.19
2022-08-25T21:50:21.867Z,19.21
2022-08-25T21:52:54.570Z,19.21
2022-08-25T21:55:23.882Z,19.19
2022-08-25T21:57:53.130Z,19.15
2022-08-25T22:00:22.587Z,19.05
2022-08-25T22:02:53.815Z,19.05
2022-08-25T22:05:22.622Z,19.00
2022-08-25T22:07:51.304Z,19.09
2022-08-25T22:10:21.666Z,19.05
2022-08-25T22:12:51.450Z,19.07
2022-08-25T22:15:20.596Z,19.09
2022-08-25T22:17:49.473Z,19.04
2022-08-25T22:20:20.444Z,19.05
2022-08-25T22:22:49.215Z,19.02
2022-08-25T22:25:18.427Z,19.03
2022-08-25T22:27:48.236Z,18.98
2022-08-25T22:30:25.452Z,19.01
2022-08-25T22:32:58.583Z,18.91
2022-08-25T22:35:29.344Z,18.98
2022-08-25T22:37:57.688Z,18.87
2022-08-25T22:40:27.727Z,18.79
2022-08-25T22:42:57.903Z,18.70
2022-08-25T22:45:27.840Z,18.68
2022-08-25T22:47:56.607Z,18.71
2022-08-25T22:50:25.696Z,18.62
2022-08-25T22:52:55.693Z,18.58
2022-08-25T22:55:24.445Z,18.64
2022-08-25T22:57:56.848Z,18.59
2022-08-25T23:00:25.722Z,18.57
2022-08-25T23:02:54.746Z,18.60
2022-08-25T23:05:23.526Z,18.58
2022-08-25T23:07:52.315Z,18.61
2022-08-25T23:10:25.672Z,18.58
2022-08-25T23:12:54.497Z,18.59
2022-08-25T23:15:23.200Z,18.52
2022-08-25T23:17:52.237Z,18.41
2022-08-25T23:20:45.229Z,18.41
2022-08-25T23:23:15.152Z,18.54
2022-08-25T23:25:45.252Z,18.53
2022-08-25T23:28:14.175Z,18.43
2022-08-25T23:30:44.787Z,18.38
2022-08-25T23:33:18.681Z,18.30
2022-08-25T23:35:50.370Z,18.46
2022-08-25T23:38:19.033Z,18.52
2022-08-25T23:40:49.332Z,18.61
2022-08-25T23:43:18.277Z,18.58
2022-08-25T23:45:47.327Z,18.65
2022-08-25T23:48:18.824Z,18.67
2022-08-25T23:50:53.911Z,18.61
2022-08-25T23:53:23.341Z,18.67
2022-08-25T23:55:54.211Z,18.39
2022-08-25T23:58:22.900Z,18.45
